Time;durP1;ratioP1;P1;durP2;ratioP2;P2;SDS_P1;SDS_P2;PMS_P1;PMS_P2;Temp;Humidity;BMP_temperature;BMP_pressure;BME280_temperature;BME280_humidity;BME280_pressure;Samples;Min_cycle;Max_cycle;Signal;HPM_P1;HPM_P2
2020/12/14 00:01:22;;;;;;;37.10;21.90;;;;;;;0.26;87.33;99506.34;517193;1096;65573;-63
2020/12/14 00:11:36;;;;;;;40.23;23.37;;;;;;;0.14;87.05;99499.71;517429;1095;65226;-62
2020/12/14 00:21:40;;;;;;;38.70;24.63;;;;;;;0.20;87.22;99512.50;517362;1095;65253;-63
2020/12/14 00:31:52;;;;;;;46.13;26.47;;;;;;;0.16;86.52;99515.18;517330;1095;65930;-63
2020/12/14 00:41:56;;;;;;;45.83;24.23;;;;;;;0.11;87.20;99536.77;517214;1095;65256;-63
2020/12/14 00:52:04;;;;;;;40.83;23.37;;;;;;;0.22;86.85;99538.27;517676;1095;65220;-62
2020/12/14 01:02:08;;;;;;;33.10;19.77;;;;;;;0.23;86.61;99542.55;517287;1095;65274;-63
2020/12/14 01:12:13;;;;;;;35.63;21.20;;;;;;;0.26;87.22;99556.25;516879;1095;65256;-63
2020/12/14 01:22:17;;;;;;;42.20;20.63;;;;;;;0.26;86.90;99555.41;517241;1095;65236;-63
2020/12/14 01:32:21;;;;;;;39.90;21.57;;;;;;;0.26;87.49;99558.00;517238;1090;65157;-63
2020/12/14 01:42:25;;;;;;;36.13;22.40;;;;;;;0.23;86.81;99563.20;517376;1095;65262;-63
2020/12/14 01:52:29;;;;;;;43.20;23.73;;;;;;;0.25;86.91;99567.47;517178;1090;65258;-63
2020/12/14 02:02:35;;;;;;;39.05;22.15;;;;;;;0.27;86.79;99572.61;517376;1095;65168;-62
2020/12/14 02:12:39;;;;;;;36.33;22.30;;;;;;;0.26;86.66;99568.33;517418;1095;65229;-63
2020/12/14 02:22:43;;;;;;;42.20;22.85;;;;;;;0.28;87.34;99569.14;517343;1095;65349;-63
2020/12/14 02:32:47;;;;;;;39.50;22.33;;;;;;;0.32;86.20;99572.51;517195;1090;66140;-63
2020/12/14 02:42:51;;;;;;;31.00;19.47;;;;;;;0.36;86.53;99567.24;517366;1095;65159;-63
2020/12/14 02:52:55;;;;;;;36.13;18.40;;;;;;;0.36;87.14;99574.13;517484;1095;65226;-64
2020/12/14 03:02:59;;;;;;;30.93;18.93;;;;;;;0.34;86.74;99591.41;517597;1095;65259;-63
2020/12/14 03:13:03;;;;;;;34.43;20.07;;;;;;;0.36;86.85;99595.66;517459;1090;65259;-63
2020/12/14 03:23:08;;;;;;;27.83;18.37;;;;;;;0.34;86.47;99589.66;517216;1090;65592;-62
2020/12/14 03:33:12;;;;;;;31.30;17.40;;;;;;;0.32;86.32;99580.26;517306;1095;65535;-64
2020/12/14 03:43:16;;;;;;;33.17;19.87;;;;;;;0.30;86.38;99567.36;517164;1095;65211;-63
2020/12/14 03:53:20;;;;;;;34.73;19.03;;;;;;;0.24;86.99;99572.69;517546;1095;65179;-62
2020/12/14 04:03:26;;;;;;;32.65;18.50;;;;;;;0.17;86.57;99587.44;517645;1095;65428;-62
2020/12/14 04:13:30;;;;;;;28.63;16.67;;;;;;;0.19;86.29;99587.41;517534;1095;65255;-63
2020/12/14 04:23:34;;;;;;;24.80;15.13;;;;;;;0.14;87.13;99603.00;517081;1090;65258;-62
2020/12/14 04:33:40;;;;;;;31.80;19.90;;;;;;;0.15;86.28;99616.77;517278;1095;65226;-63
2020/12/14 04:43:47;;;;;;;35.83;20.80;;;;;;;0.15;86.30;99620.19;517368;1090;65355;-63
2020/12/14 04:53:50;;;;;;;;;;;;;;;0.24;86.80;99638.09;517383;1095;65534;-63
2020/12/14 05:03:54;;;;;;;29.27;16.80;;;;;;;0.25;87.02;99664.78;517765;1095;65503;-62
2020/12/14 05:14:12;;;;;;;31.07;17.97;;;;;;;0.24;85.95;99665.66;517381;1095;65156;-63
2020/12/14 05:24:28;;;;;;;41.90;20.53;;;;;;;0.27;86.49;99673.34;517451;1095;65591;-64
2020/12/14 05:34:33;;;;;;;31.53;19.80;;;;;;;0.32;86.01;99674.08;517520;1095;66374;-63
2020/12/14 05:44:38;;;;;;;34.60;19.93;;;;;;;0.30;86.50;99680.19;517561;1095;65227;-63
2020/12/14 05:54:51;;;;;;;33.07;20.30;;;;;;;0.25;86.56;99690.61;517940;1095;65207;-63
2020/12/14 06:05:02;;;;;;;33.40;18.77;;;;;;;0.11;86.78;99683.13;517351;1097;65249;-62
2020/12/14 06:15:08;;;;;;;37.10;20.53;;;;;;;0.03;86.54;99693.61;517129;1097;65687;-63
2020/12/14 06:25:15;;;;;;;49.00;23.70;;;;;;;-0.01;86.96;99690.22;517317;1095;65301;-63
2020/12/14 06:35:44;;;;;;;46.33;22.35;;;;;;;0.07;86.28;99707.31;517314;1095;65175;-63
2020/12/14 06:45:57;;;;;;;46.53;24.40;;;;;;;0.11;86.77;99696.03;517612;1095;65256;-63
2020/12/14 06:56:01;;;;;;;40.63;22.13;;;;;;;0.09;86.63;99708.96;517589;1095;66416;-63
2020/12/14 07:06:07;;;;;;;44.30;24.85;;;;;;;0.22;86.10;99708.72;517256;1095;65159;-62
2020/12/14 07:16:12;;;;;;;40.60;24.07;;;;;;;0.21;86.47;99733.72;517106;1097;65232;-62
2020/12/14 07:26:17;;;;;;;44.13;22.90;;;;;;;0.24;86.06;99728.48;516853;1097;65226;-63
2020/12/14 07:36:22;;;;;;;35.73;22.07;;;;;;;0.23;86.90;99731.08;517351;1095;65263;-64
2020/12/14 07:46:30;;;;;;;41.33;22.47;;;;;;;0.33;86.20;99739.53;517534;1095;65258;-63
2020/12/14 07:56:41;;;;;;;42.37;23.80;;;;;;;0.39;86.12;99732.50;517518;1095;65833;-63
2020/12/14 08:06:46;;;;;;;35.93;19.70;;;;;;;0.44;86.24;99749.64;508334;1090;10001350;-63
2020/12/14 08:16:51;;;;;;;37.57;20.83;;;;;;;0.62;86.12;99748.41;516243;1097;65259;-66
2020/12/14 08:27:00;;;;;;;31.13;19.97;;;;;;;0.88;86.12;99750.45;516314;1090;65310;-72
2020/12/14 08:37:07;;;;;;;33.07;20.00;;;;;;;1.07;85.92;99760.41;516633;1090;65604;-74
2020/12/14 08:47:16;;;;;;;34.13;21.07;;;;;;;1.25;85.24;99769.48;517112;1095;65467;-71
2020/12/14 08:57:27;;;;;;;36.40;23.10;;;;;;;1.26;84.88;99778.95;516808;1097;66116;-72
2020/12/14 09:07:35;;;;;;;36.83;23.70;;;;;;;1.42;84.95;99760.47;516454;1090;65548;-65
2020/12/14 09:17:40;;;;;;;35.87;21.77;;;;;;;1.59;84.56;99760.07;516664;1097;65303;-68
2020/12/14 09:27:44;;;;;;;39.77;23.40;;;;;;;1.80;84.97;99756.12;516640;1090;65226;-62
2020/12/14 09:37:48;;;;;;;39.40;24.67;;;;;;;1.98;84.72;99740.98;516795;1095;65182;-60
2020/12/14 09:47:53;;;;;;;41.93;24.83;;;;;;;2.13;84.38;99735.38;516536;1090;65533;-60
2020/12/14 09:57:57;;;;;;;43.93;27.10;;;;;;;2.32;84.56;99733.17;516737;1095;65284;-59
2020/12/14 10:08:05;;;;;;;41.63;27.07;;;;;;;2.44;84.44;99734.55;516418;1096;65282;-60
2020/12/14 10:18:09;;;;;;;42.00;26.90;;;;;;;2.71;83.52;99719.08;516606;1095;65283;-64
2020/12/14 10:28:13;;;;;;;44.80;27.87;;;;;;;2.99;83.04;99715.67;516855;1090;65176;-63
2020/12/14 10:38:17;;;;;;;46.00;28.63;;;;;;;3.27;83.07;99716.55;516583;1095;65771;-60
2020/12/14 10:48:21;;;;;;;49.00;27.50;;;;;;;3.49;82.62;99709.77;516144;1090;65960;-62
2020/12/14 10:58:24;;;;;;;43.30;27.57;;;;;;;3.58;82.27;99719.00;516248;1090;65633;-64
2020/12/14 11:08:28;;;;;;;45.77;27.33;;;;;;;3.48;82.23;99710.67;517182;1090;65150;-65
2020/12/14 11:18:33;;;;;;;40.90;26.40;;;;;;;3.44;82.69;99706.46;516481;1098;65217;-64
2020/12/14 11:28:37;;;;;;;43.43;26.50;;;;;;;3.45;81.71;99694.34;516558;1095;65563;-64
2020/12/14 11:38:44;;;;;;;41.00;24.27;;;;;;;3.31;82.26;99702.58;516546;1095;65278;-59
2020/12/14 11:48:48;;;;;;;40.33;25.20;;;;;;;3.34;81.72;99692.08;516254;1097;65166;-59
2020/12/14 11:58:52;;;;;;;39.13;26.23;;;;;;;3.35;82.66;99699.83;516603;1090;65165;-59
2020/12/14 12:08:57;;;;;;;40.50;26.40;;;;;;;3.42;81.59;99704.84;516451;1096;65181;-60
2020/12/14 12:19:03;;;;;;;48.00;29.50;;;;;;;3.49;82.28;99701.13;516572;1097;65650;-68
2020/12/14 12:29:07;;;;;;;49.90;27.50;;;;;;;3.56;82.10;99697.44;516706;1095;65266;-64
2020/12/14 12:39:10;;;;;;;51.77;29.60;;;;;;;3.40;81.98;99691.03;516641;1090;65268;-65
2020/12/14 12:49:15;;;;;;;50.87;30.40;;;;;;;3.34;82.24;99686.89;516677;1095;65175;-65
2020/12/14 12:59:19;;;;;;;48.57;29.60;;;;;;;3.34;82.08;99692.08;516525;1097;65149;-66
2020/12/14 13:09:23;;;;;;;52.87;30.53;;;;;;;3.37;82.12;99692.01;516616;1090;65451;-66
2020/12/14 13:19:27;;;;;;;51.27;30.63;;;;;;;3.36;82.12;99687.72;516811;1090;66035;-66
2020/12/14 13:29:31;;;;;;;55.90;31.77;;;;;;;3.18;82.14;99686.56;516557;1090;65300;-70
2020/12/14 13:39:35;;;;;;;51.27;33.93;;;;;;;3.03;82.07;99680.94;516341;1095;65175;-65
2020/12/14 13:49:39;;;;;;;53.07;33.43;;;;;;;3.08;82.46;99704.16;524442;1095;65162;-64
2020/12/14 13:59:45;;;;;;;57.00;34.10;;;;;;;3.12;82.33;99702.31;517049;1095;65253;-67
2020/12/14 14:09:50;;;;;;;;;;;;;;;3.03;82.07;99713.84;516875;1095;65157;-65
2020/12/14 14:19:54;;;;;;;58.03;34.00;;;;;;;2.86;82.77;99712.59;516798;1097;65166;-66
2020/12/14 14:29:58;;;;;;;55.47;34.67;;;;;;;2.89;82.10;99729.81;516444;1090;65162;-61
2020/12/14 14:40:03;;;;;;;55.30;32.13;;;;;;;2.72;82.42;99725.13;517018;1095;65186;-61
2020/12/14 14:50:07;;;;;;;60.73;38.47;;;;;;;2.56;82.25;99727.31;524614;1095;65314;-68
2020/12/14 15:00:11;;;;;;;49.43;33.33;;;;;;;2.47;82.41;99720.66;516674;1096;65847;-63
2020/12/14 15:10:28;;;;;;;51.83;34.27;;;;;;;2.27;82.48;99736.77;516182;1095;65621;-61
2020/12/14 15:20:33;;;;;;;56.40;32.03;;;;;;;2.16;83.05;99731.87;516319;1096;65362;-64
2020/12/14 15:30:37;;;;;;;63.27;36.03;;;;;;;2.03;82.93;99731.37;516703;1095;65312;-63
2020/12/14 15:40:41;;;;;;;55.63;32.10;;;;;;;1.91;82.54;99745.47;516901;1095;65238;-63
2020/12/14 15:50:45;;;;;;;54.87;34.17;;;;;;;1.75;83.33;99758.82;516900;1095;65228;-60
2020/12/14 16:00:50;;;;;;;56.43;34.00;;;;;;;1.60;83.27;99751.41;516850;1090;65190;-63
2020/12/14 16:10:54;;;;;;;49.00;31.57;;;;;;;1.62;83.33;99754.84;516971;1095;65182;-62
2020/12/14 16:20:57;;;;;;;56.73;30.70;;;;;;;1.64;82.91;99768.59;516745;1095;65159;-62
2020/12/14 16:31:02;;;;;;;46.10;29.33;;;;;;;1.58;83.06;99767.00;516964;1096;65156;-60
2020/12/14 16:41:06;;;;;;;46.10;29.87;;;;;;;1.60;83.00;99772.13;517117;1096;65252;-60
2020/12/14 16:51:12;;;;;;;49.80;30.07;;;;;;;1.46;82.88;99762.95;516527;1090;65153;-62
2020/12/14 17:01:17;;;;;;;47.90;31.63;;;;;;;1.26;83.26;99761.67;516858;1090;65158;-62
2020/12/14 17:11:21;;;;;;;45.40;30.77;;;;;;;1.13;83.12;99751.66;507719;1096;10001477;-63
2020/12/14 17:21:26;;;;;;;48.53;29.67;;;;;;;0.87;83.22;99746.17;518597;1090;65156;-62
2020/12/14 17:31:30;;;;;;;50.10;27.77;;;;;;;0.59;83.85;99744.18;516738;1097;65264;-63
2020/12/14 17:41:34;;;;;;;40.43;25.43;;;;;;;0.39;84.41;99752.30;516444;1097;65523;-63
2020/12/14 17:51:39;;;;;;;48.50;29.07;;;;;;;0.24;84.58;99743.98;516712;1097;65205;-58
2020/12/14 18:01:44;;;;;;;;;;;;;;;0.13;84.08;99749.36;517055;1097;65242;-61
2020/12/14 18:11:48;;;;;;;48.13;29.07;;;;;;;0.02;84.40;99750.42;516847;1096;65185;-59
2020/12/14 18:21:52;;;;;;;47.50;29.37;;;;;;;-0.12;84.65;99748.94;516704;1090;65377;-59
2020/12/14 18:32:31;;;;;;;48.77;30.53;;;;;;;-0.23;84.89;99754.30;516862;1097;65160;-64
2020/12/14 21:29:12;;;;;;;39.47;19.80;;;;;;;-0.91;85.26;99753.61;516521;1090;65211;-57
2020/12/14 21:39:15;;;;;;;43.73;23.07;;;;;;;-0.92;85.89;99751.91;516742;1090;65623;-60
2020/12/14 21:49:20;;;;;;;44.73;23.53;;;;;;;-0.89;85.44;99754.44;517132;1090;65600;-59
2020/12/14 21:59:23;;;;;;;47.10;26.33;;;;;;;-0.84;85.58;99751.80;516878;1090;65147;-61
2020/12/14 22:09:27;;;;;;;37.80;22.97;;;;;;;-0.79;86.32;99744.00;516936;1097;65929;-61
2020/12/14 22:19:31;;;;;;;42.60;22.23;;;;;;;-0.79;85.37;99747.44;516493;1098;65470;-60
2020/12/14 22:29:35;;;;;;;37.93;22.97;;;;;;;-0.85;85.45;99753.54;516739;1090;66148;-59
2020/12/14 22:39:39;;;;;;;40.57;23.00;;;;;;;-0.92;85.62;99749.33;516480;1097;65185;-62
2020/12/14 22:49:44;;;;;;;40.20;20.50;;;;;;;-1.00;85.49;99735.69;516899;1097;65177;-61
2020/12/14 22:59:47;;;;;;;45.37;26.20;;;;;;;-1.04;86.41;99742.64;517076;1095;65578;-61
2020/12/14 23:09:53;;;;;;;39.77;24.57;;;;;;;-1.04;85.96;99745.22;517166;1097;65235;-58
2020/12/14 23:19:57;;;;;;;43.83;26.33;;;;;;;-0.97;86.27;99737.38;517408;1096;65430;-61
2020/12/14 23:30:03;;;;;;;52.27;29.17;;;;;;;-0.96;86.28;99741.66;516800;1096;65186;-61
2020/12/14 23:40:07;;;;;;;47.73;26.37;;;;;;;-1.07;86.98;99736.67;517060;1097;65156;-60
2020/12/14 23:50:10;;;;;;;55.47;30.50;;;;;;;-1.03;86.75;99733.17;516894;1097;65226;-61
